Pt. Reyes RCA field Weather observations

Data are for 10 minute period ending at time listed.
 Day   Time   Solar   Ave.   Ave.  Ave.  Vector    Max.   Stn.   Total 
  of    of     Rad.   Air    Rel.  Wind   Wind     Wind   Baro. Precip.
Year   Day            Temp.  Hum.  Speed  Dir.     Gust   Pres.        
2016   (PST)   W/m2    F      %     mph   deg.      mph    mb.    in.  
-----------------------------------------------------------------------
 343    6:30    0.0    51   97.5    15    130.7    19.4   1012.5  0.01  
 343    6:40    0.0    51   97.4    15    131.4    19.6   1012.5  0.00  
 343    6:50    0.0    51   97.6    15    138.1    20.4   1012.9  0.01  
 343    7:00    0.0    52   97.4    16    133.9    20.7   1012.9  0.00  
 343    7:10    1.0    52   97.5    15    139.4    19.4   1012.9  0.01  
 343    7:20    2.0    52   97.5    17    133.6    22.4   1012.9  0.01  
 343    7:30    6.0    52   97.6    16    134.6    22.4   1012.9  0.00  
 343    7:40   11.0    52   97.7    17    138.6    24.8   1013.2  0.01  
 343    7:50   15.0    53   97.7    20    134.5    27.8   1013.2  0.00  
 343    8:00   19.0    53   97.6    20    133.6    27.0   1013.2  0.01  
 343    8:10   32.0    53   97.6    21    136.1    28.6   1013.2  0.00  
 343    8:20   44.0    53   97.6    21    138.8    29.3   1013.5  0.01  
 343    8:30   50.0    53   97.7    19    137.8    26.1   1013.5  0.00  
 343    8:40   46.0    53   97.8    21    136.5    26.2   1013.5  0.01  
 343    8:50   42.0    53   97.8    20    135.0    25.9   1013.9  0.00  
 343    9:00   64.0    53   97.9    19    136.5    26.3   1013.9  0.01  
 343    9:10   86.0    54   98.0    18    137.1    24.6   1014.2  0.00  
 343    9:20   87.0    54   98.1    17    141.0    22.8   1014.2  0.01  
 343    9:30  106.0    54   98.2    18    139.8    23.5   1014.6  0.00  
 343    9:40   49.0    54   98.2    18    141.6    25.3   1014.6  0.00  
 343    9:50   58.0    54   98.2    17    144.2    23.9   1014.9  0.01  
 343   10:00   68.0    54   98.3    15    143.2    21.5   1014.9  0.00  
 343   10:10   91.0    54   98.4    17    143.0    22.4   1014.9  0.01  
 343   10:20   49.0    54   98.4    12    175.6    17.8   1015.2  0.00  
 343   10:30   60.0    54   98.5    14    153.9    20.8   1015.2  0.00  
 343   10:40   83.0    54   98.6    16    144.8    20.9   1015.2  0.01  
 343   10:50  103.0    54   98.7    16    147.2    20.5   1015.2  0.00  
 343   11:00   82.0    54   98.7    14    163.2    19.4   1015.2  0.01  
 343   11:10   92.0    54   98.7    15    148.7    20.0   1015.2  0.00  
 343   11:20   99.0    54   98.8    15    145.8    20.1   1015.2  0.00  
 343   11:30   93.0    55   98.8    13    145.1    18.0   1015.2  0.00  
 343   11:40   63.0    55   98.8    11    155.8    16.1   1015.2  0.01  
 343   11:50   57.0    54   98.8    10    164.7    15.9   1015.2  0.00  
 343   12:00   84.0    55   98.9    14    147.0    18.1   1014.9  0.01  
 343   12:10  135.0    55   98.9    16    146.4    19.4   1014.9  0.00  
 343   12:20   99.0    55   99.0    15    149.2    19.3   1014.9  0.00  
 343   12:30  112.0    55   99.0    16    146.8    20.5   1014.6  0.01  
 343   12:40  117.0    55   99.0    14    149.2    18.6   1014.9  0.00  
 343   12:50   72.0    55   99.0    14    149.2    17.9   1014.9  0.00  
 343   13:00   87.0    55   99.0    14    150.3    18.6   1014.9  0.01  
 343   13:10   69.0    55   99.1    12    151.2    14.8   1014.9  0.00  
 343   13:20   65.0    55   99.1    11    154.8    15.3   1014.9  0.00  
 343   13:30   86.0    55   99.1    12    148.1    15.7   1014.9  0.01  
 343   13:40  100.0    55   99.1    13    149.7    16.7   1014.9  0.00  
 343   13:50  123.0    55   99.1    14    154.3    17.0   1014.9  0.00  
 343   14:00  141.0    55   99.2    14    156.9    17.1   1014.9  0.01  
 343   14:10  101.0    55   99.2    15    159.1    19.4   1014.9  0.00  
 343   14:20   88.0    55   99.2    13    158.4    18.7   1014.9  0.00  
 343   14:30   64.0    56   99.2    11    160.8    14.0   1014.9  0.00  
 343   14:40   58.0    55   99.2    11    160.5    14.5   1015.2  0.01  
 343   14:50   46.0    55   99.2    10    161.7    13.4   1015.2  0.00  
 343   15:00   40.0    55   99.2    11    152.6    13.7   1015.2  0.00  
 343   15:10   44.0    55   99.2    11    154.9    15.1   1015.2  0.01  
 343   15:20   52.0    55   99.2    11    155.1    15.1   1015.2  0.00  
 343   15:30   44.0    55   99.2    12    164.3    15.6   1015.6  0.00  
 343   15:40   35.0    55   99.2    12    159.6    15.5   1015.6  0.00  
 343   15:50   28.0    55   99.2    10    162.0    14.2   1015.6  0.01  
 343   16:00   19.0    55   99.3    10    161.7    12.8   1015.6  0.00  
 343   16:10   18.0    55   99.3    12    158.3    15.5   1015.6  0.00  
 343   16:20   17.0    55   99.3    13    157.2    17.7   1015.6  0.01  
 343   16:30   10.0    55   99.3    11    158.5    15.7   1015.9  0.00  
 343   16:40    4.0    55   99.3    12    159.3    15.3   1015.9  0.00  
 343   16:50    3.0    55   99.3    11    152.5    14.2   1015.9  0.01  
 343   17:00    0.0    55   99.3    11    150.5    13.8   1015.9  0.00  
 343   17:10    0.0    55   99.3    10    149.2    12.5   1015.9  0.00  
 343   17:20    0.0    54   99.4     9    146.5    13.9   1015.9  0.01  
 343   17:30    0.0    54   99.4    11    146.3    14.3   1015.9  0.00  
 343   17:40    0.0    54   99.4    11    151.4    13.8   1016.3  0.00  
 343   17:50    0.0    54   99.4    11    148.7    15.3   1016.3  0.01  
 343   18:00    0.0    54   99.4    10    152.2    13.4   1016.3  0.00  
 343   18:10    0.0    54   99.4    11    146.0    13.7   1016.3  0.01  
 343   18:20    0.0    54   99.4    11    150.5    15.5   1016.3  0.00  
 343   18:30    0.0    54   99.4    10    148.8    12.3   1016.6  0.01  
 343   18:40    0.0    54   99.4     9    146.7    11.9   1016.6  0.00  
 343   18:50    0.0    55   99.4     9    146.5    11.6   1016.6  0.01  
 343   19:00    0.0    55   99.4     9    144.5    12.5   1016.6  0.00  
 343   19:10    0.0    55   99.5    10    148.7    12.0   1016.6  0.00  
 343   19:20    0.0    55   99.5    10    151.5    12.9   1016.9  0.01  
 343   19:30    0.0    55   99.5     9    151.8    12.2   1016.9  0.00  
 343   19:40    0.0    55   99.5     8    154.9    10.4   1016.9  0.01  
 343   19:50    0.0    55   99.5     9    147.6    11.6   1016.9  0.00  
 343   20:00    0.0    54   99.5     9    149.4    11.9   1016.9  0.00  
 343   20:10    0.0    54   99.5     9    148.0    12.1   1016.9  0.01  
 343   20:20    0.0    54   99.5    10    149.6    12.9   1016.9  0.00  
 343   20:30    0.0    54   99.5    10    151.9    12.4   1017.3  0.01  
 343   20:40    0.0    54   99.5     9    153.8    11.5   1017.3  0.00  
 343   20:50    0.0    55   99.5    10    156.9    12.5   1017.3  0.00  
 343   21:00    0.0    55   99.5     9    152.2    11.7   1017.3  0.01  
 343   21:10    0.0    54   99.6     9    152.7    12.3   1017.6  0.00  
 343   21:20    0.0    54   99.6     9    149.8    11.4   1017.6  0.01  
 343   21:30    0.0    54   99.6    10    148.1    12.5   1017.6  0.00  
 343   21:40    0.0    55   99.6    11    144.2    14.0   1017.3  0.00  
 343   21:50    0.0    55   99.6    10    147.2    13.0   1017.3  0.01  
 343   22:00    0.0    55   99.6     9    151.9    11.8   1017.6  0.00  
 343   22:10    0.0    55   99.6     8    150.8     9.7   1018.0  0.00  
 343   22:20    0.0    55   99.6     8    146.0     9.5   1017.6  0.01  
 343   22:30   -1.0    55   99.6     8    150.2    11.5   1018.0  0.00  
 343   22:40    0.0    55   99.6     8    151.5    11.5   1018.0  0.00  
 343   22:50    0.0    55   99.6     9    153.8    11.0   1018.3  0.01  
 343   23:00    0.0    55   99.6     9    153.9    11.3   1018.3  0.00  
 343   23:10    0.0    55   99.6     9    154.1    11.7   1018.3  0.00  
 343   23:20    0.0    55   99.6    10    149.1    13.3   1018.3  0.01  
 343   23:30    0.0    55   99.6     9    152.5    11.6   1018.3  0.00  
 343   23:40    0.0    55   99.6    10    152.1    12.3   1018.0  0.00  
 343   23:50    0.0    54   99.6     9    150.2    12.2   1018.0  0.01  
 344    0:00    0.0    54   99.6     8    152.3    10.0   1018.3  0.00  
 344    0:10    0.0    54   99.6     9    155.6    11.2   1018.3  0.00  
 344    0:20    0.0    54   99.6     9    156.3    11.0   1018.3  0.01  
 344    0:30    0.0    54   99.6     9    156.2    11.5   1018.3  0.00  
 344    0:40    0.0    54   99.6     8    155.0     9.5   1018.3  0.00  
 344    0:50    0.0    54   99.6     7    148.3     9.9   1018.3  0.00  
 344    1:00    0.0    54   99.6     8    152.6    10.2   1018.3  0.00  
 344    1:10    0.0    54   99.7     9    151.4    11.2   1018.0  0.01  
 344    1:20    0.0    54   99.7     8    153.6    11.1   1018.3  0.00  
 344    1:30    0.0    54   99.6    10    154.6    12.8   1018.3  0.00  
 344    1:40    0.0    54   99.6     9    155.8    12.5   1018.3  0.01  
 344    1:50    0.0    55   99.6     9    157.6    12.8   1018.3  0.00  
 344    2:00    0.0    54   99.6     9    154.7    13.0   1018.3  0.00  
 344    2:10    0.0    54   99.7     9    156.1    11.5   1018.3  0.00  
 344    2:20    0.0    54   99.7     9    154.1    12.1   1018.3  0.01  
 344    2:30    0.0    54   99.7    10    153.4    11.6   1018.3  0.00  
 344    2:40    0.0    54   99.7    10    154.4    12.3   1018.3  0.00  
 344    2:50    0.0    54   99.7     9    143.1    11.2   1018.3  0.00  
 344    3:00    0.0    54   99.7     7    143.7     8.7   1018.3  0.01  
 344    3:10    0.0    54   99.7     7    147.9     9.5   1018.3  0.00  
 344    3:20    0.0    54   99.7     8    146.1    10.4   1018.3  0.00  
 344    3:30    0.0    54   99.7     9    151.8    11.2   1018.3  0.00  
 344    3:40    0.0    54   99.7     9    147.5    11.6   1018.3  0.00  
 344    3:50    0.0    54   99.7     9    146.1    11.5   1018.3  0.00  
 344    4:00    0.0    54   99.7     9    148.0    11.2   1018.0  0.01  
 344    4:10    0.0    54   99.7    10    146.8    13.1   1018.3  0.00  
 344    4:20    0.0    54   99.7     9    148.1    12.8   1018.0  0.00  
 344    4:30    0.0    54   99.7     9    149.6    12.8   1018.0  0.00  
 344    4:40    0.0    54   99.7    11    145.5    13.9   1018.0  0.01  
 344    4:50    0.0    54   99.7    10    153.8    12.2   1018.0  0.00  
 344    5:00    0.0    54   99.7    10    147.8    13.2   1018.0  0.00  
 344    5:10    0.0    54   99.7    10    155.7    12.1   1018.0  0.00  
 344    5:20    0.0    54   99.7    10    158.8    13.3   1018.0  0.00  
 344    5:30    0.0    54   99.7    10    151.6    13.2   1018.0  0.00  
 344    5:40    0.0    54   99.7    10    151.5    13.6   1018.3  0.00  
 344    5:50    0.0    54   99.7     9    157.0    11.8   1018.3  0.01  
 344    6:00    0.0    54   99.7     8    155.7    10.8   1018.3  0.00  
 344    6:10    0.0    54   99.7     8    155.1    10.3   1018.6  0.00  
 344    6:20    0.0    54   99.7     8    161.3     9.9   1018.6  0.00  

Return to Pt. Reyes graphs page.


Western Regional Climate Center,wrcc@dri.edu